createdAt,value
2022-11-24T00:00:58.991Z,-1.28
2022-11-24T00:01:58.976Z,-1.25
2022-11-24T00:02:58.953Z,-1.26
2022-11-24T00:03:58.855Z,-1.28
2022-11-24T00:04:58.876Z,-1.29
2022-11-24T00:05:58.852Z,-1.29
2022-11-24T00:06:59.002Z,-1.27
2022-11-24T00:07:58.836Z,-1.32
2022-11-24T00:08:58.862Z,-1.31
2022-11-24T00:09:58.818Z,-1.30
2022-11-24T00:10:58.838Z,-1.36
2022-11-24T00:11:58.809Z,-1.39
2022-11-24T00:12:58.841Z,-1.39
2022-11-24T00:13:58.790Z,-1.39
2022-11-24T00:14:58.815Z,-1.38
2022-11-24T00:15:58.809Z,-1.38
2022-11-24T00:16:58.878Z,-1.38
2022-11-24T00:17:58.823Z,-1.39
2022-11-24T00:18:58.830Z,-1.39
2022-11-24T00:19:58.766Z,-1.40
2022-11-24T00:20:58.787Z,-1.39
2022-11-24T00:21:58.735Z,-1.39
2022-11-24T00:22:58.744Z,-1.36
2022-11-24T00:23:58.714Z,-1.36
2022-11-24T00:24:58.879Z,-1.36
2022-11-24T00:25:58.696Z,-1.35
2022-11-24T00:26:58.702Z,-1.36
2022-11-24T00:27:58.689Z,-1.34
2022-11-24T00:28:58.864Z,-1.36
2022-11-24T00:29:58.667Z,-1.39
2022-11-24T00:30:58.858Z,-1.39
2022-11-24T00:31:58.634Z,-1.36
2022-11-24T00:32:58.691Z,-1.36
2022-11-24T00:33:58.636Z,-1.33
2022-11-24T00:34:58.642Z,-1.32
2022-11-24T00:35:58.612Z,-1.32
2022-11-24T00:36:58.714Z,-1.30
2022-11-24T00:37:58.638Z,-1.28
2022-11-24T00:38:59.209Z,-1.30
2022-11-24T00:39:58.612Z,-1.27
2022-11-24T00:40:58.591Z,-1.23
2022-11-24T00:41:58.548Z,-1.20
2022-11-24T00:42:58.666Z,-1.17
2022-11-24T00:43:58.546Z,-1.15
2022-11-24T00:44:58.522Z,-1.15
2022-11-24T00:45:58.631Z,-1.17
2022-11-24T00:46:58.607Z,-1.15
2022-11-24T00:47:58.476Z,-1.16
2022-11-24T00:48:58.592Z,-1.12
2022-11-24T00:49:58.460Z,-1.10
2022-11-24T00:50:58.430Z,-1.11
2022-11-24T00:51:58.413Z,-1.13
2022-11-24T00:52:58.410Z,-1.13
2022-11-24T00:53:58.387Z,-1.14
2022-11-24T00:54:58.431Z,-1.14
2022-11-24T00:55:58.390Z,-1.14
2022-11-24T00:56:58.409Z,-1.17
2022-11-24T00:57:58.370Z,-1.20
2022-11-24T00:58:58.361Z,-1.25
2022-11-24T00:59:58.344Z,-1.24
2022-11-24T01:00:58.439Z,-1.27
2022-11-24T01:01:58.357Z,-1.26
2022-11-24T01:02:58.911Z,-1.30
2022-11-24T01:03:58.321Z,-1.34
2022-11-24T01:04:58.354Z,-1.34
2022-11-24T01:05:58.330Z,-1.39
2022-11-24T01:06:58.491Z,-1.40
2022-11-24T01:07:58.304Z,-1.43
2022-11-24T01:08:58.339Z,-1.48
2022-11-24T01:09:58.306Z,-1.47
2022-11-24T01:10:58.330Z,-1.48
2022-11-24T01:11:58.340Z,-1.55
2022-11-24T01:12:58.460Z,-1.53
2022-11-24T01:13:58.311Z,-1.51
2022-11-24T01:14:58.306Z,-1.47
2022-11-24T01:15:58.346Z,-1.48
2022-11-24T01:16:58.294Z,-1.47
2022-11-24T01:17:58.263Z,-1.44
2022-11-24T01:18:58.275Z,-1.45
2022-11-24T01:19:58.239Z,-1.40
2022-11-24T01:20:58.261Z,-1.42
2022-11-24T01:21:58.212Z,-1.43
2022-11-24T01:22:58.255Z,-1.43
2022-11-24T01:23:58.185Z,-1.41
2022-11-24T01:24:58.354Z,-1.36
2022-11-24T01:25:58.168Z,-1.34
2022-11-24T01:26:58.184Z,-1.32
2022-11-24T01:27:58.150Z,-1.29
2022-11-24T01:29:02.045Z,-1.33
2022-11-24T01:30:06.091Z,-1.36
2022-11-24T01:31:06.294Z,-1.35
2022-11-24T01:32:06.118Z,-1.39
2022-11-24T01:33:06.201Z,-1.40
2022-11-24T01:34:06.071Z,-1.46
2022-11-24T01:35:06.112Z,-1.47
2022-11-24T01:36:06.091Z,-1.54
2022-11-24T01:37:06.080Z,-1.56
2022-11-24T01:38:06.009Z,-1.53
2022-11-24T01:39:06.041Z,-1.50
2022-11-24T01:40:05.977Z,-1.56
2022-11-24T01:41:06.011Z,-1.57
2022-11-24T01:42:05.973Z,-1.61
2022-11-24T01:43:05.969Z,-1.83
2022-11-24T01:44:06.094Z,-1.90
2022-11-24T01:45:05.933Z,-1.79
2022-11-24T01:46:05.952Z,-1.84
2022-11-24T01:47:05.903Z,-1.70
2022-11-24T01:48:05.886Z,-1.68
2022-11-24T01:49:05.924Z,-1.71
2022-11-24T01:50:05.856Z,-1.70
2022-11-24T01:51:05.856Z,-1.69
2022-11-24T01:52:05.837Z,-1.64
2022-11-24T01:53:05.840Z,-1.65
2022-11-24T01:54:05.837Z,-1.65
2022-11-24T01:55:05.960Z,-1.64
2022-11-24T01:56:05.806Z,-1.69
2022-11-24T01:57:05.832Z,-1.70
2022-11-24T01:58:05.822Z,-1.68
2022-11-24T01:59:05.840Z,-1.72
2022-11-24T02:00:05.784Z,-1.74
2022-11-24T02:01:05.877Z,-1.75
2022-11-24T02:02:05.875Z,-1.72
2022-11-24T02:03:05.822Z,-1.77
2022-11-24T02:04:05.734Z,-1.75
2022-11-24T02:05:05.763Z,-1.79
2022-11-24T02:07:59.757Z,-1.74
2022-11-24T02:08:59.732Z,-1.80
2022-11-24T02:09:59.717Z,-1.80
2022-11-24T02:10:59.742Z,-1.84
2022-11-24T02:11:59.678Z,-1.84
2022-11-24T02:12:59.692Z,-1.87
2022-11-24T02:13:59.659Z,-1.87
2022-11-24T02:14:59.685Z,-1.85
2022-11-24T02:15:59.703Z,-1.85
2022-11-24T02:16:59.775Z,-1.86
2022-11-24T02:17:59.642Z,-1.84
2022-11-24T02:18:59.669Z,-1.84
2022-11-24T02:19:59.633Z,-1.86
2022-11-24T02:20:59.648Z,-1.84
2022-11-24T02:21:59.609Z,-1.83
2022-11-24T02:22:59.728Z,-1.82
2022-11-24T02:23:59.594Z,-1.82
2022-11-24T02:24:59.614Z,-1.79
2022-11-24T02:25:59.579Z,-1.77
2022-11-24T02:26:59.589Z,-1.79
2022-11-24T02:27:59.566Z,-1.74
2022-11-24T02:28:59.718Z,-1.73
2022-11-24T02:29:59.645Z,-1.73
2022-11-24T02:30:59.635Z,-1.68
2022-11-24T02:31:59.505Z,-1.70
2022-11-24T02:32:59.498Z,-1.68
2022-11-24T02:33:59.475Z,-1.68
2022-11-24T02:34:59.601Z,-1.68
2022-11-24T02:35:59.452Z,-1.69
2022-11-24T02:36:59.453Z,-1.86
2022-11-24T02:37:59.441Z,-2.05
2022-11-24T02:38:59.444Z,-2.18
2022-11-24T02:39:59.440Z,-2.13
2022-11-24T02:40:59.532Z,-2.26
2022-11-24T02:41:59.394Z,-2.43
2022-11-24T02:42:59.405Z,-2.49
2022-11-24T02:43:59.357Z,-2.56
2022-11-24T02:44:59.354Z,-2.74
2022-11-24T02:45:59.424Z,-2.77
2022-11-24T02:46:59.507Z,-2.90
2022-11-24T02:47:59.298Z,-3.09
2022-11-24T02:48:59.371Z,-3.33
2022-11-24T02:49:59.316Z,-3.47
2022-11-24T02:50:59.341Z,-3.70
2022-11-24T02:51:59.364Z,-3.89
2022-11-24T02:52:59.298Z,-3.97
2022-11-24T02:53:59.249Z,-3.98
2022-11-24T02:54:59.251Z,-4.09
2022-11-24T02:56:03.183Z,-4.19
2022-11-24T02:57:03.271Z,-4.19
2022-11-24T02:58:03.403Z,-4.19
2022-11-24T02:59:03.265Z,-4.19
2022-11-24T03:00:03.237Z,-4.21
2022-11-24T03:01:03.262Z,-4.25
2022-11-24T03:02:03.451Z,-4.25
2022-11-24T03:03:03.961Z,-4.29
2022-11-24T03:04:03.231Z,-4.32
2022-11-24T03:05:03.242Z,-4.35
2022-11-24T03:06:03.288Z,-4.39
2022-11-24T03:07:03.234Z,-4.41
2022-11-24T03:08:03.207Z,-4.50
2022-11-24T03:09:03.354Z,-4.53
2022-11-24T03:10:03.196Z,-4.56
2022-11-24T03:11:03.228Z,-4.55
2022-11-24T03:12:03.180Z,-4.58
2022-11-24T03:13:03.302Z,-4.60
2022-11-24T03:14:03.182Z,-4.61
2022-11-24T03:15:03.238Z,-4.64
2022-11-24T03:16:03.258Z,-4.65
2022-11-24T03:17:03.183Z,-4.67
2022-11-24T03:18:03.184Z,-4.68
2022-11-24T03:19:03.204Z,-4.68
2022-11-24T03:20:04.949Z,-4.69
2022-11-24T03:21:03.218Z,-4.72
2022-11-24T03:22:03.164Z,-4.71
2022-11-24T03:23:03.187Z,-4.69
2022-11-24T03:24:03.168Z,-4.67
2022-11-24T03:25:03.660Z,-4.73
2022-11-24T03:26:03.143Z,-4.73
2022-11-24T03:27:03.158Z,-4.73
2022-11-24T03:28:03.120Z,-4.72
2022-11-24T03:29:03.133Z,-4.73
2022-11-24T03:30:03.119Z,-4.72
2022-11-24T03:31:03.198Z,-4.73
2022-11-24T03:32:03.099Z,-4.75
2022-11-24T03:33:03.101Z,-4.73
2022-11-24T03:34:03.057Z,-4.75
2022-11-24T03:35:03.198Z,-4.74
2022-11-24T03:36:03.063Z,-4.74
2022-11-24T03:37:03.057Z,-4.72
2022-11-24T03:38:03.082Z,-4.74
2022-11-24T03:39:03.076Z,-4.73
2022-11-24T03:40:03.025Z,-4.65
2022-11-24T03:41:03.032Z,-4.60
2022-11-24T03:42:02.994Z,-4.59
2022-11-24T03:43:03.040Z,-4.60
2022-11-24T03:44:03.002Z,-4.60
2022-11-24T03:45:29.900Z,-4.55
2022-11-24T03:46:03.078Z,-4.52
2022-11-24T03:47:02.997Z,-4.52
2022-11-24T03:48:02.997Z,-4.48
2022-11-24T03:49:02.982Z,-4.46
2022-11-24T03:50:02.962Z,-4.42
2022-11-24T03:51:03.021Z,-4.49
2022-11-24T03:52:07.775Z,-4.51
2022-11-24T03:53:03.002Z,-4.50
2022-11-24T03:54:02.980Z,-4.48
2022-11-24T03:55:03.005Z,-4.50
2022-11-24T03:56:02.984Z,-4.52
2022-11-24T03:57:03.104Z,-4.51
2022-11-24T03:58:02.952Z,-4.51
2022-11-24T03:59:02.954Z,-4.53
2022-11-24T04:00:02.948Z,-4.54
2022-11-24T04:01:02.933Z,-4.52
2022-11-24T04:02:02.981Z,-4.51
2022-11-24T04:03:03.099Z,-4.53
2022-11-24T04:04:02.930Z,-4.52
2022-11-24T04:05:02.934Z,-4.51
2022-11-24T04:06:02.918Z,-4.52
2022-11-24T04:07:02.957Z,-4.52
2022-11-24T04:08:03.076Z,-4.53
2022-11-24T04:09:02.953Z,-4.52
2022-11-24T04:10:02.978Z,-4.54
2022-11-24T04:11:02.969Z,-4.54
2022-11-24T04:12:02.941Z,-4.55
2022-11-24T04:13:02.942Z,-4.55
2022-11-24T04:14:02.932Z,-4.56
2022-11-24T04:15:02.963Z,-4.56
2022-11-24T04:16:02.944Z,-4.57
2022-11-24T04:17:02.935Z,-4.56
2022-11-24T04:18:02.911Z,-4.57
2022-11-24T04:19:02.949Z,-4.59
2022-11-24T04:20:02.905Z,-4.61
2022-11-24T04:21:03.030Z,-4.63
2022-11-24T04:22:02.911Z,-4.64
2022-11-24T04:23:02.919Z,-4.66
2022-11-24T04:24:02.903Z,-4.63
2022-11-24T04:25:02.923Z,-4.66
2022-11-24T04:26:02.928Z,-4.66
2022-11-24T04:27:03.046Z,-4.66
2022-11-24T04:28:02.915Z,-4.67
2022-11-24T04:29:02.941Z,-4.66
2022-11-24T04:30:03.011Z,-4.66
2022-11-24T04:31:02.993Z,-4.65
2022-11-24T04:32:02.892Z,-4.65
2022-11-24T04:33:02.964Z,-4.64
2022-11-24T04:34:02.892Z,-4.60
2022-11-24T04:35:02.902Z,-4.60
2022-11-24T04:36:02.888Z,-4.60
2022-11-24T04:37:02.905Z,-4.58
2022-11-24T04:38:02.913Z,-4.59
2022-11-24T04:39:24.142Z,-4.59
2022-11-24T04:40:02.868Z,-4.59
2022-11-24T04:41:02.926Z,-4.61
2022-11-24T04:42:02.866Z,-4.61
2022-11-24T04:43:02.915Z,-4.61
2022-11-24T04:44:02.872Z,-4.60
2022-11-24T04:45:02.899Z,-4.59
2022-11-24T04:46:02.864Z,-4.61
2022-11-24T04:47:02.946Z,-4.61
2022-11-24T04:48:02.845Z,-4.63
2022-11-24T04:49:02.864Z,-4.63
2022-11-24T04:50:02.873Z,-4.64
2022-11-24T04:51:03.012Z,-4.65
2022-11-24T04:52:02.877Z,-4.66
2022-11-24T04:53:02.863Z,-4.67
2022-11-24T04:54:02.840Z,-4.69
2022-11-24T04:55:02.863Z,-4.71
2022-11-24T04:56:02.810Z,-4.71
2022-11-24T04:57:02.836Z,-4.72
2022-11-24T04:58:02.818Z,-4.74
2022-11-24T04:59:07.861Z,-4.73
2022-11-24T05:00:02.767Z,-4.75
2022-11-24T05:01:02.754Z,-4.76
2022-11-24T05:02:02.775Z,-4.78
2022-11-24T05:03:02.772Z,-4.79
2022-11-24T05:04:02.823Z,-4.80
2022-11-24T05:05:02.743Z,-4.78
2022-11-24T05:06:02.722Z,-4.78
2022-11-24T05:07:02.733Z,-4.78
2022-11-24T05:08:02.780Z,-4.76
2022-11-24T05:09:02.753Z,-4.75
2022-11-24T05:10:03.423Z,-4.74
2022-11-24T05:11:08.630Z,-4.76
2022-11-24T05:12:08.728Z,-4.73
2022-11-24T05:13:08.754Z,-4.72
2022-11-24T05:14:08.740Z,-4.70
2022-11-24T05:15:09.178Z,-4.69
2022-11-24T05:16:08.767Z,-4.70
2022-11-24T05:17:08.702Z,-4.70
2022-11-24T05:18:08.717Z,-4.68
2022-11-24T05:19:08.733Z,-4.67
2022-11-24T05:20:08.744Z,-4.66
2022-11-24T05:21:08.685Z,-4.67
2022-11-24T05:22:08.723Z,-4.65
2022-11-24T05:23:08.716Z,-4.63
2022-11-24T05:24:08.878Z,-4.64
2022-11-24T05:25:08.752Z,-4.60
2022-11-24T05:26:08.731Z,-4.60
2022-11-24T05:27:08.696Z,-4.59
2022-11-24T05:28:08.725Z,-4.59
2022-11-24T05:29:08.709Z,-4.55
2022-11-24T05:30:08.712Z,-4.56
2022-11-24T05:31:08.850Z,-4.55
2022-11-24T05:32:08.726Z,-4.53
2022-11-24T05:33:08.708Z,-4.52
2022-11-24T05:34:08.727Z,-4.50
2022-11-24T05:35:08.876Z,-4.48
2022-11-24T05:36:08.723Z,-4.49
2022-11-24T05:37:08.832Z,-4.48
2022-11-24T05:38:08.714Z,-4.45
2022-11-24T05:39:08.699Z,-4.44
2022-11-24T05:40:08.731Z,-4.43
2022-11-24T05:41:08.687Z,-4.42
2022-11-24T05:42:08.708Z,-4.41
2022-11-24T05:43:08.706Z,-4.42
2022-11-24T05:44:08.721Z,-4.40
2022-11-24T05:45:08.689Z,-4.37
2022-11-24T05:46:08.711Z,-4.37
2022-11-24T05:47:08.768Z,-4.36
2022-11-24T05:48:08.688Z,-4.35
2022-11-24T05:49:08.700Z,-4.35
2022-11-24T05:50:08.691Z,-4.35
2022-11-24T05:51:09.568Z,-4.34
2022-11-24T05:52:08.704Z,-4.32
2022-11-24T05:53:08.675Z,-4.34
2022-11-24T05:54:08.701Z,-4.30
2022-11-24T05:55:08.778Z,-4.32
2022-11-24T05:56:08.691Z,-4.29
2022-11-24T05:57:08.795Z,-4.27
2022-11-24T05:58:08.702Z,-4.29
2022-11-24T05:59:10.090Z,-4.27
2022-11-24T06:00:08.704Z,-4.29
2022-11-24T06:01:08.694Z,-4.27
2022-11-24T06:02:08.805Z,-4.25
2022-11-24T06:03:08.842Z,-4.26
2022-11-24T06:04:08.682Z,-4.24
2022-11-24T06:05:08.676Z,-4.24
2022-11-24T06:06:08.672Z,-4.21
2022-11-24T06:07:08.809Z,-4.21
2022-11-24T06:08:08.690Z,-4.22
2022-11-24T06:09:08.637Z,-4.22
2022-11-24T06:10:08.645Z,-4.22
2022-11-24T06:11:08.636Z,-4.21
2022-11-24T06:12:13.562Z,-4.21
2022-11-24T06:13:19.578Z,-4.21
2022-11-24T06:14:19.649Z,-4.20
2022-11-24T06:15:19.631Z,-4.20
2022-11-24T06:16:19.736Z,-4.21
2022-11-24T06:17:19.772Z,-4.20
2022-11-24T06:18:24.557Z,-4.19
2022-11-24T06:19:24.672Z,-4.19
2022-11-24T06:20:29.686Z,-4.19
2022-11-24T06:21:24.624Z,-4.17
2022-11-24T06:22:24.628Z,-4.20
2022-11-24T06:23:24.628Z,-4.20
2022-11-24T06:24:24.598Z,-4.20
2022-11-24T06:25:24.602Z,-4.21
2022-11-24T06:26:24.610Z,-4.23
2022-11-24T06:27:24.593Z,-4.22
2022-11-24T06:28:24.692Z,-4.26
2022-11-24T06:29:24.608Z,-4.27
2022-11-24T06:32:18.484Z,-4.27
2022-11-24T06:33:18.585Z,-4.27
2022-11-24T06:34:18.695Z,-4.30
2022-11-24T06:35:18.577Z,-4.29
2022-11-24T06:36:18.554Z,-4.29
2022-11-24T06:37:18.598Z,-4.31
2022-11-24T06:38:24.118Z,-4.32
2022-11-24T06:39:18.625Z,-4.31
2022-11-24T06:40:18.691Z,-4.30
2022-11-24T06:41:18.648Z,-4.31
2022-11-24T06:42:18.602Z,-4.35
2022-11-24T06:43:18.614Z,-4.35
2022-11-24T06:44:18.611Z,-4.40
2022-11-24T06:45:23.532Z,-4.40
2022-11-24T06:46:23.722Z,-4.37
2022-11-24T06:47:23.610Z,-4.38
2022-11-24T06:48:23.613Z,-4.37
2022-11-24T06:49:23.772Z,-4.40
2022-11-24T06:50:25.236Z,-4.39
2022-11-24T06:51:23.608Z,-4.42
2022-11-24T06:52:23.629Z,-4.43
2022-11-24T06:53:23.619Z,-4.43
2022-11-24T06:54:23.612Z,-4.43
2022-11-24T06:55:23.593Z,-4.45
2022-11-24T06:56:23.630Z,-4.46
2022-11-24T06:57:23.618Z,-4.48
2022-11-24T06:58:23.628Z,-4.50
2022-11-24T06:59:23.628Z,-4.49
2022-11-24T07:00:23.773Z,-4.50
2022-11-24T07:01:23.777Z,-4.50
2022-11-24T07:02:23.753Z,-4.50
2022-11-24T07:03:23.711Z,-4.51
2022-11-24T07:04:23.626Z,-4.52
2022-11-24T07:05:23.597Z,-4.53
2022-11-24T07:06:23.627Z,-4.54
2022-11-24T07:07:23.627Z,-4.54
2022-11-24T07:08:24.156Z,-4.55
2022-11-24T07:09:28.537Z,-4.56
2022-11-24T07:10:28.701Z,-4.58
2022-11-24T07:11:28.623Z,-4.57
2022-11-24T07:12:28.601Z,-4.56
2022-11-24T07:13:28.745Z,-4.56
2022-11-24T07:14:28.609Z,-4.57
2022-11-24T07:15:28.627Z,-4.55
2022-11-24T07:16:28.728Z,-4.55
2022-11-24T07:17:28.630Z,-4.54
2022-11-24T07:18:28.604Z,-4.53
2022-11-24T07:19:28.739Z,-4.55
2022-11-24T07:20:28.683Z,-4.54
2022-11-24T07:21:28.651Z,-4.53
2022-11-24T07:22:28.629Z,-4.53
2022-11-24T07:23:28.638Z,-4.52
2022-11-24T07:24:28.633Z,-4.53
2022-11-24T07:25:28.674Z,-4.54
2022-11-24T07:26:28.641Z,-4.55
2022-11-24T07:27:28.666Z,-4.53
2022-11-24T07:28:28.635Z,-4.53
2022-11-24T07:29:28.641Z,-4.52
2022-11-24T07:30:28.868Z,-4.53
2022-11-24T07:31:28.727Z,-4.52
2022-11-24T07:32:28.614Z,-4.52
2022-11-24T07:33:28.657Z,-4.54
2022-11-24T07:34:28.611Z,-4.54
2022-11-24T07:35:28.654Z,-4.54
2022-11-24T07:36:28.640Z,-4.56
2022-11-24T07:37:31.680Z,-4.56
2022-11-24T07:38:28.642Z,-4.57
2022-11-24T07:39:33.529Z,-4.55
2022-11-24T07:40:33.691Z,-4.56
2022-11-24T07:41:33.640Z,-4.54
2022-11-24T07:42:33.781Z,-4.54
2022-11-24T07:43:33.639Z,-4.55
2022-11-24T07:44:33.989Z,-4.54
2022-11-24T07:45:33.715Z,-4.54
2022-11-24T07:46:33.652Z,-4.55
2022-11-24T07:47:33.627Z,-4.55
2022-11-24T07:48:33.666Z,-4.56
2022-11-24T07:49:33.616Z,-4.53
2022-11-24T07:50:33.635Z,-4.52
2022-11-24T07:51:33.778Z,-4.50
2022-11-24T07:52:33.629Z,-4.50
2022-11-24T07:53:33.610Z,-4.49
2022-11-24T07:54:33.947Z,-4.49
2022-11-24T07:55:33.600Z,-4.48
2022-11-24T07:56:33.620Z,-4.44
2022-11-24T07:57:33.602Z,-4.43
2022-11-24T07:58:33.623Z,-4.43
2022-11-24T07:59:33.591Z,-4.43
2022-11-24T08:00:33.751Z,-4.42
2022-11-24T08:01:33.660Z,-4.40
2022-11-24T08:02:33.718Z,-4.41
2022-11-24T08:03:33.668Z,-4.40
2022-11-24T08:04:33.956Z,-4.39
2022-11-24T08:05:33.611Z,-4.41
2022-11-24T08:06:39.773Z,-4.40
2022-11-24T08:07:33.693Z,-4.41
2022-11-24T08:08:33.641Z,-4.40
2022-11-24T08:09:33.618Z,-4.41
2022-11-24T08:10:33.634Z,-4.39
2022-11-24T08:11:33.625Z,-4.39
2022-11-24T08:12:33.776Z,-4.38
2022-11-24T08:13:33.736Z,-4.37
2022-11-24T08:14:34.019Z,-4.36
2022-11-24T08:15:33.623Z,-4.35
2022-11-24T08:16:33.708Z,-4.35
2022-11-24T08:17:33.618Z,-4.35
2022-11-24T08:18:33.673Z,-4.35
2022-11-24T08:19:33.630Z,-4.37
2022-11-24T08:20:33.652Z,-4.36
2022-11-24T08:21:33.647Z,-4.39
2022-11-24T08:22:33.656Z,-4.40
2022-11-24T08:23:33.640Z,-4.43
2022-11-24T08:24:33.982Z,-4.42
2022-11-24T08:25:33.646Z,-4.44
2022-11-24T08:26:33.670Z,-4.46
2022-11-24T08:27:33.651Z,-4.49
2022-11-24T08:28:33.658Z,-4.49
2022-11-24T08:29:33.611Z,-4.53
2022-11-24T08:30:33.650Z,-4.53
2022-11-24T08:31:34.048Z,-4.55
2022-11-24T08:32:33.619Z,-4.56
2022-11-24T08:33:33.597Z,-4.58
2022-11-24T08:34:33.869Z,-4.55
2022-11-24T08:35:33.626Z,-4.57
2022-11-24T08:36:33.731Z,-4.56
2022-11-24T08:37:33.605Z,-4.57
2022-11-24T08:38:33.637Z,-4.56
2022-11-24T08:39:33.615Z,-4.53
2022-11-24T08:40:33.644Z,-4.51
2022-11-24T08:41:33.630Z,-4.50
2022-11-24T08:42:33.685Z,-4.46
2022-11-24T08:43:33.627Z,-4.45
2022-11-24T08:44:34.093Z,-4.37
2022-11-24T08:45:39.740Z,-4.38
2022-11-24T08:46:38.728Z,-4.36
2022-11-24T08:47:38.769Z,-4.37
2022-11-24T08:48:38.631Z,-4.35
2022-11-24T08:49:38.633Z,-4.39
2022-11-24T08:50:38.599Z,-4.38
2022-11-24T08:51:38.622Z,-4.39
2022-11-24T08:52:38.615Z,-4.42
2022-11-24T08:53:43.595Z,-4.41
2022-11-24T08:54:43.605Z,-4.42
2022-11-24T08:55:43.602Z,-4.41
2022-11-24T08:56:43.741Z,-4.41
2022-11-24T08:57:43.583Z,-4.41
2022-11-24T08:58:49.672Z,-4.40
2022-11-24T08:59:49.595Z,-4.39
2022-11-24T09:00:49.574Z,-4.38
2022-11-24T09:01:49.711Z,-4.38
2022-11-24T09:02:49.594Z,-4.35
2022-11-24T09:03:51.092Z,-4.31
2022-11-24T09:04:49.648Z,-4.28
2022-11-24T09:05:52.497Z,-4.27
2022-11-24T09:06:49.753Z,-4.24
2022-11-24T09:07:49.692Z,-4.29
2022-11-24T09:08:49.598Z,-4.27
2022-11-24T09:09:49.608Z,-4.24
2022-11-24T09:10:49.585Z,-4.24
2022-11-24T09:11:49.594Z,-4.24
2022-11-24T09:12:49.576Z,-4.20
2022-11-24T09:13:49.639Z,-4.21
2022-11-24T09:14:49.581Z,-4.20
2022-11-24T09:15:49.736Z,-4.20
2022-11-24T09:16:49.655Z,-4.20
2022-11-24T09:17:49.745Z,-4.19
2022-11-24T09:18:49.576Z,-4.16
2022-11-24T09:19:49.595Z,-4.16
2022-11-24T09:20:49.577Z,-4.12
2022-11-24T09:21:49.729Z,-4.12
2022-11-24T09:22:49.570Z,-4.14
2022-11-24T09:23:49.585Z,-4.12
2022-11-24T09:24:49.562Z,-4.13
2022-11-24T09:25:49.583Z,-4.11
2022-11-24T09:26:49.585Z,-4.15
2022-11-24T09:27:49.707Z,-4.13
2022-11-24T09:28:49.597Z,-4.13
2022-11-24T09:29:49.585Z,-4.09
2022-11-24T09:30:49.641Z,-4.05
2022-11-24T09:31:49.580Z,-4.04
2022-11-24T09:32:49.567Z,-4.02
2022-11-24T09:33:49.619Z,-3.99
2022-11-24T09:34:49.571Z,-4.00
2022-11-24T09:35:49.593Z,-3.97
2022-11-24T09:36:49.569Z,-3.97
2022-11-24T09:37:49.581Z,-3.96
2022-11-24T09:38:49.561Z,-3.95
2022-11-24T09:39:49.689Z,-3.96
2022-11-24T09:40:49.562Z,-3.95
2022-11-24T09:41:49.606Z,-3.97
2022-11-24T09:42:53.555Z,-3.97
2022-11-24T09:43:49.628Z,-3.95
2022-11-24T09:44:49.587Z,-3.94
2022-11-24T09:46:04.987Z,-3.92
2022-11-24T09:46:49.634Z,-3.90
2022-11-24T09:47:49.604Z,-3.90
2022-11-24T09:48:49.606Z,-3.92
2022-11-24T09:49:51.404Z,-3.90
2022-11-24T09:50:49.733Z,-3.91
2022-11-24T09:51:49.705Z,-3.90
2022-11-24T09:52:49.581Z,-3.92
2022-11-24T09:53:49.592Z,-3.91
2022-11-24T09:54:49.564Z,-3.91
2022-11-24T09:55:54.460Z,-3.92
2022-11-24T09:56:54.596Z,-3.92
2022-11-24T09:57:54.565Z,-3.94
2022-11-24T09:58:54.614Z,-3.94
2022-11-24T09:59:54.593Z,-3.94
2022-11-24T10:00:54.785Z,-3.95
2022-11-24T10:01:54.651Z,-3.96
2022-11-24T10:02:59.499Z,-3.96
2022-11-24T10:04:05.646Z,-3.96
2022-11-24T10:04:59.645Z,-3.95
2022-11-24T10:05:59.592Z,-3.95
2022-11-24T10:06:59.585Z,-3.95
2022-11-24T10:07:59.778Z,-3.91
2022-11-24T10:08:59.575Z,-3.91
2022-11-24T10:10:00.160Z,-3.93
2022-11-24T10:10:59.626Z,-3.92
2022-11-24T10:11:59.602Z,-3.94
2022-11-24T10:12:59.579Z,-3.92
2022-11-24T10:13:59.727Z,-3.91
2022-11-24T10:14:59.554Z,-3.92
2022-11-24T10:15:59.726Z,-3.92
2022-11-24T10:16:59.562Z,-3.91
2022-11-24T10:17:59.593Z,-3.89
2022-11-24T10:18:59.571Z,-3.90
2022-11-24T10:19:59.705Z,-3.89
2022-11-24T10:20:59.579Z,-3.89
2022-11-24T10:21:59.770Z,-3.90
2022-11-24T10:22:59.601Z,-3.86
2022-11-24T10:23:59.624Z,-3.90
2022-11-24T10:24:59.629Z,-3.86
2022-11-24T10:25:59.721Z,-3.82
2022-11-24T10:26:59.623Z,-3.81
2022-11-24T10:27:59.636Z,-3.80
2022-11-24T10:28:59.618Z,-3.79
2022-11-24T10:29:59.642Z,-3.79
2022-11-24T10:30:59.669Z,-3.77
2022-11-24T10:31:59.693Z,-3.78
2022-11-24T10:32:59.778Z,-3.74
2022-11-24T10:33:59.677Z,-3.71
2022-11-24T10:34:59.687Z,-3.71
2022-11-24T10:35:59.694Z,-3.71
2022-11-24T10:36:59.755Z,-3.72
2022-11-24T10:37:59.689Z,-3.71
2022-11-24T10:38:59.668Z,-3.69
2022-11-24T10:40:00.291Z,-3.67
2022-11-24T10:40:59.818Z,-3.68
2022-11-24T10:41:59.703Z,-3.67
2022-11-24T10:42:59.831Z,-3.66
2022-11-24T10:45:05.740Z,-3.64
2022-11-24T10:46:05.823Z,-3.61
2022-11-24T10:47:05.725Z,-3.58
2022-11-24T10:48:05.787Z,-3.54
2022-11-24T10:49:06.723Z,-3.52
2022-11-24T10:50:06.748Z,-3.49
2022-11-24T10:51:06.765Z,-3.49
2022-11-24T10:52:06.794Z,-3.49
2022-11-24T10:53:06.868Z,-3.49
2022-11-24T10:54:06.808Z,-3.47
2022-11-24T10:57:00.858Z,-3.43
2022-11-24T10:58:06.702Z,-3.40
2022-11-24T10:59:06.836Z,-3.41
2022-11-24T11:00:06.806Z,-3.41
2022-11-24T11:01:06.936Z,-3.38
2022-11-24T11:02:06.987Z,-3.40
2022-11-24T11:03:06.955Z,-3.38
2022-11-24T11:04:06.835Z,-3.37
2022-11-24T11:05:06.984Z,-3.37
2022-11-24T11:06:06.869Z,-3.35
2022-11-24T11:07:07.101Z,-3.37
2022-11-24T11:08:06.897Z,-3.38
2022-11-24T11:09:06.885Z,-3.36
2022-11-24T11:10:06.867Z,-3.39
2022-11-24T11:11:11.917Z,-3.38
2022-11-24T11:12:36.214Z,-3.35
2022-11-24T11:13:11.875Z,-3.35
2022-11-24T11:14:11.897Z,-3.36
2022-11-24T11:15:11.878Z,-3.34
2022-11-24T11:16:12.089Z,-3.31
2022-11-24T11:17:12.039Z,-3.30
2022-11-24T11:18:16.855Z,-3.30
2022-11-24T11:19:47.513Z,-3.26
2022-11-24T11:20:16.948Z,-3.27
2022-11-24T11:21:17.040Z,-3.25
2022-11-24T11:22:16.956Z,-3.23
2022-11-24T11:23:22.854Z,-3.23
2022-11-24T11:24:22.967Z,-3.22
2022-11-24T11:25:22.961Z,-3.21
2022-11-24T11:26:23.009Z,-3.19
2022-11-24T11:27:22.999Z,-3.18
2022-11-24T11:28:26.913Z,-3.18
2022-11-24T11:31:27.046Z,-3.16
2022-11-24T11:34:30.310Z,-3.06
2022-11-24T11:35:27.132Z,-3.06
2022-11-24T11:36:27.178Z,-3.06
2022-11-24T11:37:27.202Z,-3.06
2022-11-24T11:38:27.097Z,-3.09
2022-11-24T11:39:27.110Z,-3.08
2022-11-24T11:40:27.093Z,-3.07
2022-11-24T11:41:27.140Z,-3.06
2022-11-24T11:43:00.290Z,-3.08
2022-11-24T11:43:27.132Z,-3.05
2022-11-24T11:44:27.133Z,-3.04
2022-11-24T11:45:27.204Z,-3.07
2022-11-24T11:46:27.217Z,-3.06
2022-11-24T11:47:27.166Z,-3.05
2022-11-24T11:48:27.305Z,-3.05
2022-11-24T11:49:27.192Z,-3.05
2022-11-24T11:50:27.239Z,-3.02
2022-11-24T11:51:27.231Z,-3.00
2022-11-24T11:52:27.213Z,-2.97
2022-11-24T11:53:27.220Z,-3.00
2022-11-24T11:54:27.318Z,-2.97
2022-11-24T11:55:27.236Z,-2.97
2022-11-24T11:56:27.215Z,-2.97
2022-11-24T11:57:27.225Z,-2.96
2022-11-24T11:58:27.216Z,-2.96
2022-11-24T11:59:27.333Z,-2.95
2022-11-24T12:00:27.334Z,-2.96
2022-11-24T12:01:27.298Z,-2.95
2022-11-24T12:02:27.355Z,-2.95
2022-11-24T12:03:27.353Z,-2.94
2022-11-24T12:04:27.240Z,-2.94
2022-11-24T12:05:27.241Z,-2.95
2022-11-24T12:06:27.318Z,-2.94
2022-11-24T12:07:27.668Z,-2.94
2022-11-24T12:08:49.603Z,-2.94
2022-11-24T12:09:33.589Z,-2.92
2022-11-24T12:10:33.242Z,-2.93
2022-11-24T12:11:33.447Z,-2.92
2022-11-24T12:12:33.264Z,-2.92
2022-11-24T12:13:33.277Z,-2.93
2022-11-24T12:14:33.252Z,-2.92
2022-11-24T12:15:33.292Z,-2.92
2022-11-24T12:16:33.322Z,-2.93
2022-11-24T12:17:33.407Z,-2.93
2022-11-24T12:18:56.692Z,-2.94
2022-11-24T12:19:33.713Z,-2.93
2022-11-24T12:20:33.313Z,-2.93
2022-11-24T12:21:33.318Z,-2.92
2022-11-24T12:22:33.306Z,-2.93
2022-11-24T12:23:33.440Z,-2.92
2022-11-24T12:24:33.379Z,-2.92
2022-11-24T12:25:33.369Z,-2.92
2022-11-24T12:26:33.349Z,-2.93
2022-11-24T12:27:33.391Z,-2.94
2022-11-24T12:28:33.369Z,-2.95
2022-11-24T12:29:33.871Z,-2.94
2022-11-24T12:30:33.465Z,-2.93
2022-11-24T12:31:33.553Z,-2.92
2022-11-24T12:32:33.443Z,-2.91
2022-11-24T12:33:38.453Z,-2.88
2022-11-24T12:34:38.629Z,-2.90
2022-11-24T12:35:43.379Z,-2.90
2022-11-24T12:36:43.539Z,-2.89
2022-11-24T12:37:43.543Z,-2.90
2022-11-24T12:38:43.572Z,-2.89
2022-11-24T12:39:43.669Z,-2.91
2022-11-24T12:40:49.506Z,-2.91
2022-11-24T12:41:49.652Z,-2.90
2022-11-24T12:42:49.614Z,-2.90
2022-11-24T12:43:49.657Z,-2.91
2022-11-24T12:44:49.665Z,-2.90
2022-11-24T12:45:49.687Z,-2.90
2022-11-24T12:46:49.726Z,-2.90
2022-11-24T12:47:49.734Z,-2.89
2022-11-24T12:48:49.706Z,-2.88
2022-11-24T12:49:49.838Z,-2.88
2022-11-24T12:50:49.782Z,-2.86
2022-11-24T12:51:49.789Z,-2.86
2022-11-24T12:52:54.119Z,-2.84
2022-11-24T12:53:49.820Z,-2.83
2022-11-24T12:54:49.820Z,-2.86
2022-11-24T12:55:49.975Z,-2.81
2022-11-24T12:56:49.867Z,-2.81
2022-11-24T12:57:54.803Z,-2.78
2022-11-24T12:58:54.935Z,-2.78
2022-11-24T12:59:54.945Z,-2.77
2022-11-24T13:00:55.004Z,-2.75
2022-11-24T13:01:55.068Z,-2.76
2022-11-24T13:02:55.196Z,-2.74
2022-11-24T13:03:55.005Z,-2.74
2022-11-24T13:04:55.061Z,-2.76
2022-11-24T13:05:55.062Z,-2.74